NORTHEAST SUFFOLK  -  Air Quality Alert Air Quality Alert        NORTHERN NASSAU  -  Air Quality Alert Air Quality Alert        NORTHERN QUEENS  -  Air Quality Alert Air Quality Alert        NORTHWEST SUFFOLK  -  Air Quality Alert Air Quality Alert        SOUTHEAST SUFFOLK  -  Air Quality Alert Air Quality Alert        SOUTHERN NASSAU  -  Air Quality Alert Air Quality Alert        SOUTHERN QUEENS  -  Air Quality Alert Air Quality Alert        SOUTHWEST SUFFOLK  -  Air Quality Alert Air Quality Alert      

Active alerts

Northern Queens
  Details for Northern Queens Air Quality Alert
Southern Queens
  Details for Southern Queens Air Quality Alert
Northern Nassau
  Details for Northern Nassau Air Quality Alert
Southern Nassau
  Details for Southern Nassau Air Quality Alert
Northwest Suffolk
  Details for Northwest Suffolk Air Quality Alert
Southwest Suffolk
  Details for Southwest Suffolk Air Quality Alert
Northeast Suffolk
  Details for Northeast Suffolk Air Quality Alert
Southeast Suffolk
  Details for Southeast Suffolk Air Quality Alert


WXM80 ListenWXM80 Stop

You find our weather info also at:

UK Metoffice

WeatherCloud

Weather Underground

Northeastern Weather Network

AWEKAS

Citizen Weather Observer Program (CWOP)

HAMweather, WeatherForYou, PWS Weather


Weather Underground History page Text

Daily Summary for September 26, 2017 Units:  English    Metric   Both
« Previous Day
Next Day »
Daily Weekly Monthly Yearly Custom
  High: Low: Average:
Temperature: 79.6 °F 65.6 °F 71.6 °F
Dew Point: 72.5 °F 63.0 °F 68.3 °F
Humidity: 97 % 76 % 90 %
Wind Speed: 4.5 mph 0.0 mph 0.5 mph
Wind Gust: 7.0 mph - -
Wind:- - ENE
Pressure: 29.95 in 29.85 in -
Precipitation: 0.00 in    
Historical Graphs
 
 
Tabular Data for September 26, 2017
Time Temperature Dew Point Pressure Wind Wind Speed Wind Gust Humidity Rainfall Rate (Hourly)
00:03 66.4 °F 63.4 °F 29.92 in Calm     90 % 0.00 in
00:08 66.3 °F 63.3 °F 29.93 in Calm     90 % 0.00 in
00:13 66.2 °F 63.5 °F 29.93 in Calm     91 % 0.00 in
00:18 66.1 °F 63.1 °F 29.92 in Calm     90 % 0.00 in
00:23 66.1 °F 63.1 °F 29.92 in Calm     90 % 0.00 in
00:28 65.9 °F 63.2 °F 29.92 in Calm     91 % 0.00 in
00:38 65.9 °F 63.2 °F 29.92 in Calm     91 % 0.00 in
00:43 65.8 °F 63.1 °F 29.92 in Calm     91 % 0.00 in
00:48 65.7 °F 63.0 °F 29.92 in Calm     91 % 0.00 in
00:53 65.7 °F 63.3 °F 29.92 in Calm     92 % 0.00 in
00:58 65.7 °F 63.3 °F 29.92 in SE 0.2 mph 1.2 mph 92 % 0.00 in
01:03 65.6 °F 63.2 °F 29.93 in Calm     92 % 0.00 in
01:08 65.6 °F 63.2 °F 29.93 in Calm     92 % 0.00 in
01:18 65.7 °F 63.6 °F 29.93 in Calm     93 % 0.00 in
01:23 65.7 °F 63.6 °F 29.93 in Calm     93 % 0.00 in
01:28 65.8 °F 63.7 °F 29.94 in SE 0.1 mph 1.2 mph 93 % 0.00 in
01:33 65.9 °F 64.1 °F 29.94 in Calm     94 % 0.00 in
01:38 66.0 °F 64.2 °F 29.94 in Calm     94 % 0.00 in
01:43 66.3 °F 64.8 °F 29.94 in Calm     95 % 0.00 in
01:48 66.6 °F 65.1 °F 29.95 in Calm     95 % 0.00 in
01:53 66.8 °F 65.3 °F 29.94 in SE 0.1 mph 1.2 mph 95 % 0.00 in
01:59 67.0 °F 65.5 °F 29.94 in SE 1.3 mph 2.3 mph 95 % 0.00 in
02:04 67.2 °F 66.0 °F 29.95 in SE 0.2 mph 2.3 mph 96 % 0.00 in
02:09 67.3 °F 65.8 °F 29.95 in SE 1.1 mph 3.5 mph 95 % 0.00 in
02:13 67.3 °F 65.8 °F 29.95 in SE 0.4 mph 2.0 mph 95 % 0.00 in
02:18 67.4 °F 65.9 °F 29.95 in SE 1.1 mph 3.5 mph 95 % 0.00 in
02:23 67.3 °F 65.8 °F 29.95 in Calm   2.3 mph 95 % 0.00 in
02:28 67.3 °F 65.8 °F 29.94 in SE 1.1 mph 2.3 mph 95 % 0.00 in
02:33 67.3 °F 65.8 °F 29.94 in SE 1.5 mph 3.5 mph 95 % 0.00 in
02:38 67.4 °F 66.2 °F 29.94 in Calm   3.5 mph 96 % 0.00 in
02:43 67.4 °F 66.2 °F 29.94 in Calm     96 % 0.00 in
02:49 67.4 °F 66.2 °F 29.94 in Calm     96 % 0.00 in
02:50 67.4 °F 66.2 °F 29.94 in Calm     96 % 0.00 in
02:55 67.4 °F 66.2 °F 29.93 in Calm     96 % 0.00 in
03:00 67.4 °F 66.2 °F 29.94 in Calm     96 % 0.00 in
03:05 67.4 °F 66.2 °F 29.94 in Calm     96 % 0.00 in
03:10 67.4 °F 66.2 °F 29.93 in Calm     96 % 0.00 in
03:15 67.4 °F 66.2 °F 29.93 in Calm     96 % 0.00 in
03:20 67.4 °F 66.2 °F 29.93 in Calm     96 % 0.00 in
03:25 67.4 °F 66.2 °F 29.93 in Calm     96 % 0.00 in
03:30 67.5 °F 66.3 °F 29.93 in Calm     96 % 0.00 in
03:35 67.5 °F 66.3 °F 29.93 in Calm     96 % 0.00 in
03:40 67.5 °F 66.3 °F 29.93 in Calm     96 % 0.00 in
03:46 67.5 °F 66.3 °F 29.93 in Calm     96 % 0.00 in
03:51 67.6 °F 66.4 °F 29.93 in Calm     96 % 0.00 in
03:56 67.5 °F 66.3 °F 29.93 in Calm     96 % 0.00 in
04:01 67.5 °F 66.3 °F 29.93 in Calm     96 % 0.00 in
04:06 67.5 °F 66.3 °F 29.92 in Calm     96 % 0.00 in
04:11 67.6 °F 66.4 °F 29.93 in Calm     96 % 0.00 in
04:16 67.6 °F 66.4 °F 29.92 in Calm     96 % 0.00 in
04:21 67.6 °F 66.4 °F 29.92 in Calm     96 % 0.00 in
04:26 67.6 °F 66.4 °F 29.92 in Calm     96 % 0.00 in
04:31 67.6 °F 66.4 °F 29.92 in Calm     96 % 0.00 in
04:36 67.5 °F 66.3 °F 29.92 in Calm     96 % 0.00 in
04:41 67.5 °F 66.3 °F 29.93 in Calm     96 % 0.00 in
04:46 67.5 °F 66.3 °F 29.92 in Calm     96 % 0.00 in
04:51 67.4 °F 66.2 °F 29.92 in NNE 1.5 mph 3.5 mph 96 % 0.00 in
04:56 67.4 °F 66.2 °F 29.92 in Calm   1.2 mph 96 % 0.00 in
05:01 67.5 °F 66.3 °F 29.91 in North 1.7 mph 5.0 mph 96 % 0.00 in
05:07 67.4 °F 66.2 °F 29.91 in North 0.1 mph 1.2 mph 96 % 0.00 in
05:12 67.4 °F 66.2 °F 29.91 in Calm     96 % 0.00 in
05:17 67.4 °F 66.2 °F 29.91 in NE 0.4 mph 1.2 mph 96 % 0.00 in
05:22 67.5 °F 66.3 °F 29.91 in NNE 1.4 mph 4.0 mph 96 % 0.00 in
05:27 67.5 °F 66.3 °F 29.92 in NNE 0.1 mph 1.2 mph 96 % 0.00 in
05:32 67.5 °F 66.3 °F 29.92 in Calm     96 % 0.00 in
05:47 67.5 °F 66.3 °F 29.92 in Calm     96 % 0.00 in
05:52 67.5 °F 66.3 °F 29.93 in Calm     96 % 0.00 in
05:57 67.5 °F 66.3 °F 29.93 in Calm     96 % 0.00 in
06:02 67.5 °F 66.3 °F 29.93 in Calm     96 % 0.00 in
06:05 67.5 °F 66.3 °F 29.93 in Calm     96 % 0.00 in
06:10 67.5 °F 66.3 °F 29.93 in Calm     96 % 0.00 in
06:15 67.5 °F 66.3 °F 29.93 in NNE 0.2 mph 2.3 mph 96 % 0.00 in
06:21 67.6 °F 66.4 °F 29.93 in Calm     96 % 0.00 in
06:25 67.6 °F 66.4 °F 29.93 in NNE 0.6 mph 2.3 mph 96 % 0.00 in
06:26 67.6 °F 66.4 °F 29.93 in NNE 0.3 mph 2.3 mph 96 % 0.00 in
06:31 67.6 °F 66.4 °F 29.93 in NNE 0.6 mph 2.3 mph 96 % 0.00 in
06:36 67.6 °F 66.4 °F 29.93 in Calm     96 % 0.00 in
06:41 67.6 °F 66.7 °F 29.93 in Calm     97 % 0.00 in
06:46 67.7 °F 66.5 °F 29.93 in NNE 0.1 mph 1.2 mph 96 % 0.00 in
06:51 67.7 °F 66.8 °F 29.94 in NNE 0.1 mph   97 % 0.00 in
06:56 67.6 °F 66.7 °F 29.94 in Calm     97 % 0.00 in
07:01 67.7 °F 66.8 °F 29.93 in NNE 0.3 mph 1.2 mph 97 % 0.00 in
07:06 67.8 °F 66.9 °F 29.93 in NNE 0.2 mph   97 % 0.00 in
07:11 67.8 °F 66.9 °F 29.94 in Calm     97 % 0.00 in
07:16 67.9 °F 67.0 °F 29.94 in Calm   1.2 mph 97 % 0.00 in
07:21 67.9 °F 67.0 °F 29.94 in NE 0.8 mph 1.0 mph 97 % 0.00 in
07:26 67.9 °F 67.0 °F 29.94 in NE 0.2 mph 1.2 mph 97 % 0.00 in
07:32 68.0 °F 67.1 °F 29.94 in NE 0.1 mph 1.0 mph 97 % 0.00 in
07:37 68.0 °F 67.1 °F 29.94 in NE 0.5 mph 2.3 mph 97 % 0.00 in
07:42 68.0 °F 67.1 °F 29.94 in NE 0.8 mph 2.3 mph 97 % 0.00 in
07:47 68.1 °F 67.2 °F 29.94 in NE 0.2 mph 1.2 mph 97 % 0.00 in
07:52 68.2 °F 67.3 °F 29.94 in Calm     97 % 0.00 in
07:57 68.3 °F 67.4 °F 29.94 in Calm   2.3 mph 97 % 0.00 in
08:02 68.4 °F 67.5 °F 29.94 in NE 2.3 mph 4.0 mph 97 % 0.00 in
08:07 68.5 °F 67.6 °F 29.94 in Calm   1.2 mph 97 % 0.00 in
08:12 68.6 °F 67.7 °F 29.94 in Calm   2.0 mph 97 % 0.00 in
08:17 68.7 °F 67.8 °F 29.95 in Calm     97 % 0.00 in
08:22 68.8 °F 67.9 °F 29.95 in Calm     97 % 0.00 in
08:27 68.9 °F 68.0 °F 29.95 in Calm     97 % 0.00 in
08:33 69.0 °F 68.1 °F 29.95 in Calm   1.0 mph 97 % 0.00 in
08:38 69.1 °F 68.2 °F 29.95 in Calm     97 % 0.00 in
08:43 69.2 °F 68.3 °F 29.95 in Calm   1.2 mph 97 % 0.00 in
08:48 69.4 °F 68.5 °F 29.95 in NE 0.1 mph 2.3 mph 97 % 0.00 in
08:53 69.4 °F 68.5 °F 29.95 in Calm     97 % 0.00 in
08:58 69.5 °F 68.6 °F 29.95 in Calm     97 % 0.00 in
09:03 69.6 °F 68.7 °F 29.95 in NE 0.3 mph 2.3 mph 97 % 0.00 in
09:08 69.7 °F 68.8 °F 29.95 in Calm   1.2 mph 97 % 0.00 in
09:13 69.7 °F 68.8 °F 29.95 in NE 0.2 mph 1.2 mph 97 % 0.00 in
09:18 69.7 °F 68.5 °F 29.95 in Calm   1.2 mph 96 % 0.00 in
09:23 69.9 °F 68.7 °F 29.95 in NE 1.3 mph 4.0 mph 96 % 0.00 in
09:28 70.0 °F 68.8 °F 29.95 in Calm     96 % 0.00 in
09:33 70.1 °F 68.9 °F 29.95 in NE 0.1 mph 1.0 mph 96 % 0.00 in
09:38 70.4 °F 69.2 °F 29.95 in NE 0.1 mph 1.2 mph 96 % 0.00 in
09:43 70.4 °F 68.9 °F 29.95 in NE 0.1 mph 1.2 mph 95 % 0.00 in
09:48 70.6 °F 69.1 °F 29.95 in Calm   1.2 mph 95 % 0.00 in
09:53 70.8 °F 69.3 °F 29.95 in ENE 0.1 mph 1.0 mph 95 % 0.00 in
09:58 71.0 °F 69.2 °F 29.95 in Calm   1.2 mph 94 % 0.00 in
10:03 71.2 °F 69.1 °F 29.95 in Calm   1.2 mph 93 % 0.00 in
10:08 71.4 °F 69.3 °F 29.95 in NE 0.4 mph 1.2 mph 93 % 0.00 in
10:13 71.6 °F 69.5 °F 29.95 in NE 0.1 mph 1.2 mph 93 % 0.00 in
10:18 71.8 °F 69.3 °F 29.95 in NE 1.9 mph 3.5 mph 92 % 0.00 in
10:23 72.0 °F 69.2 °F 29.95 in ENE 0.9 mph 2.3 mph 91 % 0.00 in
10:28 72.1 °F 69.3 °F 29.95 in ENE 1.5 mph 4.6 mph 91 % 0.00 in
10:33 72.2 °F 69.4 °F 29.95 in NE 1.0 mph 3.5 mph 91 % 0.00 in
10:38 72.3 °F 69.5 °F 29.95 in NE 0.5 mph 3.5 mph 91 % 0.00 in
10:43 72.5 °F 69.4 °F 29.94 in NE 2.1 mph 5.0 mph 90 % 0.00 in
10:48 72.7 °F 69.6 °F 29.95 in ENE 0.3 mph 2.3 mph 90 % 0.00 in
10:53 72.9 °F 69.8 °F 29.95 in NNE 1.5 mph 3.5 mph 90 % 0.00 in
10:58 73.2 °F 69.8 °F 29.94 in NNE 2.3 mph 4.0 mph 89 % 0.00 in
11:03 73.4 °F 69.6 °F 29.94 in ENE 0.7 mph 3.0 mph 88 % 0.00 in
11:08 73.7 °F 69.9 °F 29.95 in Calm   2.3 mph 88 % 0.00 in
11:13 73.9 °F 70.1 °F 29.94 in Calm     88 % 0.00 in
11:23 74.8 °F 70.7 °F 29.94 in NNW 1.5 mph 4.0 mph 87 % 0.00 in
11:28 75.3 °F 70.8 °F 29.94 in ENE 1.2 mph 3.5 mph 86 % 0.00 in
11:33 76.0 °F 71.2 °F 29.94 in NE 1.4 mph 2.3 mph 85 % 0.00 in
11:39 76.4 °F 70.9 °F 29.94 in NNE 3.3 mph 4.0 mph 83 % 0.00 in
11:44 76.8 °F 71.2 °F 29.94 in NNE 1.3 mph 3.5 mph 83 % 0.00 in
11:49 77.4 °F 71.5 °F 29.94 in ENE 2.4 mph 4.0 mph 82 % 0.00 in
11:54 77.9 °F 72.0 °F 29.93 in North 1.9 mph 4.6 mph 82 % 0.00 in
11:59 78.3 °F 71.6 °F 29.93 in NNE 1.9 mph 5.0 mph 80 % 0.00 in
12:04 78.5 °F 71.1 °F 29.93 in ENE 1.5 mph 3.5 mph 78 % 0.00 in
12:09 78.7 °F 71.6 °F 29.93 in North 1.8 mph 6.0 mph 79 % 0.00 in
12:19 79.3 °F 72.2 °F 29.93 in NNE 4.5 mph 7.0 mph 79 % 0.00 in
12:24 79.4 °F 71.9 °F 29.92 in NNE 2.2 mph 3.5 mph 78 % 0.00 in
12:29 79.3 °F 71.5 °F 29.93 in North 2.7 mph 4.6 mph 77 % 0.00 in
12:34 79.1 °F 70.9 °F 29.93 in NNE 2.5 mph 4.6 mph 76 % 0.00 in
12:39 79.0 °F 71.6 °F 29.93 in North 1.3 mph 4.0 mph 78 % 0.00 in
12:44 79.1 °F 71.6 °F 29.93 in North 2.3 mph 4.6 mph 78 % 0.00 in
12:49 79.1 °F 70.9 °F 29.92 in ENE 2.6 mph 4.0 mph 76 % 0.00 in
12:54 79.0 °F 71.9 °F 29.92 in ENE 1.5 mph 3.5 mph 79 % 0.00 in
12:59 79.1 °F 71.3 °F 29.92 in North 2.7 mph 4.6 mph 77 % 0.00 in
13:04 79.0 °F 71.6 °F 29.92 in North 1.8 mph 5.8 mph 78 % 0.00 in
13:10 78.9 °F 71.5 °F 29.92 in NE 2.2 mph 3.5 mph 78 % 0.00 in
13:13 78.9 °F 71.5 °F 29.92 in ENE 1.9 mph 5.8 mph 78 % 0.00 in
13:18 79.0 °F 71.6 °F 29.91 in NE 1.2 mph 3.5 mph 78 % 0.00 in
13:23 79.0 °F 71.6 °F 29.91 in NNE 3.2 mph 3.5 mph 78 % 0.00 in
13:28 78.8 °F 71.0 °F 29.91 in NE 1.3 mph 3.5 mph 77 % 0.00 in
13:33 78.9 °F 71.8 °F 29.90 in ENE 1.9 mph 3.5 mph 79 % 0.00 in
13:38 78.9 °F 71.8 °F 29.91 in ENE 2.9 mph 5.8 mph 79 % 0.00 in
13:43 79.1 °F 72.0 °F 29.91 in NNE 1.4 mph 3.5 mph 79 % 0.00 in
13:46 79.2 °F 72.1 °F 29.90 in NE 2.0 mph 4.0 mph 79 % 0.00 in
13:51 79.3 °F 71.5 °F 29.91 in NE 2.0 mph 5.0 mph 77 % 0.00 in
13:55 79.1 °F 72.0 °F 29.90 in North 2.3 mph 4.0 mph 79 % 0.00 in
13:57 79.1 °F 72.0 °F 29.90 in NNE 2.7 mph 4.6 mph 79 % 0.00 in
14:02 79.4 °F 72.3 °F 29.91 in ENE 0.7 mph 3.5 mph 79 % 0.00 in
14:07 79.6 °F 72.5 °F 29.91 in ENE 0.6 mph 2.3 mph 79 % 0.00 in
14:12 79.6 °F 72.1 °F 29.90 in NE 0.4 mph 2.0 mph 78 % 0.00 in
14:17 79.3 °F 71.8 °F 29.90 in North 1.1 mph 4.0 mph 78 % 0.00 in
14:22 79.1 °F 71.6 °F 29.90 in NE 2.6 mph 3.5 mph 78 % 0.00 in
14:27 79.0 °F 71.6 °F 29.90 in North 2.0 mph 3.5 mph 78 % 0.00 in
14:32 79.0 °F 71.6 °F 29.89 in North 1.7 mph 3.5 mph 78 % 0.00 in
14:37 78.9 °F 71.5 °F 29.89 in NNE 2.1 mph 3.5 mph 78 % 0.00 in
14:42 78.7 °F 71.6 °F 29.89 in NNE 1.2 mph 3.5 mph 79 % 0.00 in
14:47 78.6 °F 71.5 °F 29.89 in ENE 1.6 mph 3.5 mph 79 % 0.00 in
14:52 78.5 °F 71.4 °F 29.89 in ENE 0.9 mph 3.5 mph 79 % 0.00 in
14:57 78.4 °F 71.3 °F 29.89 in ENE 2.2 mph 3.5 mph 79 % 0.00 in
15:02 78.3 °F 71.6 °F 29.88 in NE 1.4 mph 3.5 mph 80 % 0.00 in
15:08 78.2 °F 71.5 °F 29.88 in NE 0.3 mph 1.2 mph 80 % 0.00 in
15:13 78.3 °F 71.6 °F 29.88 in NE 0.2 mph 1.2 mph 80 % 0.00 in
15:16 78.2 °F 71.2 °F 29.88 in NE 0.8 mph 3.5 mph 79 % 0.00 in
15:21 78.1 °F 71.1 °F 29.88 in ENE 1.5 mph 3.5 mph 79 % 0.00 in
15:27 77.9 °F 71.2 °F 29.88 in Calm   2.3 mph 80 % 0.00 in
15:32 77.6 °F 70.9 °F 29.88 in NNE 0.6 mph 3.5 mph 80 % 0.00 in
15:37 77.4 °F 71.5 °F 29.89 in Calm     82 % 0.00 in
15:42 77.3 °F 71.0 °F 29.88 in NNE 0.2 mph 1.2 mph 81 % 0.00 in
15:47 77.2 °F 71.3 °F 29.88 in NNE 0.5 mph 1.2 mph 82 % 0.00 in
15:52 77.2 °F 70.9 °F 29.88 in NE 0.5 mph 1.2 mph 81 % 0.00 in
15:57 77.1 °F 70.8 °F 29.88 in ENE 1.3 mph 3.5 mph 81 % 0.00 in
16:02 77.1 °F 71.2 °F 29.87 in ENE 0.6 mph 2.3 mph 82 % 0.00 in
16:07 77.0 °F 71.1 °F 29.87 in ENE 2.1 mph 3.5 mph 82 % 0.00 in
16:12 76.9 °F 71.0 °F 29.87 in ENE 1.6 mph 3.0 mph 82 % 0.00 in
16:17 76.8 °F 70.9 °F 29.87 in ENE 1.3 mph 3.5 mph 82 % 0.00 in
16:22 76.6 °F 71.0 °F 29.87 in ENE 0.1 mph 1.2 mph 83 % 0.00 in
16:27 76.5 °F 70.9 °F 29.87 in Calm   1.2 mph 83 % 0.00 in
16:32 76.4 °F 71.2 °F 29.87 in NE 0.1 mph 3.5 mph 84 % 0.00 in
16:37 76.3 °F 71.1 °F 29.87 in Calm   3.5 mph 84 % 0.00 in
16:42 76.1 °F 71.3 °F 29.87 in Calm   1.2 mph 85 % 0.00 in
16:47 76.0 °F 71.2 °F 29.87 in NE 1.7 mph 3.5 mph 85 % 0.00 in
16:52 76.0 °F 71.2 °F 29.87 in NE 0.5 mph 2.0 mph 85 % 0.00 in
16:57 75.9 °F 71.1 °F 29.87 in Calm   1.2 mph 85 % 0.00 in
17:02 75.8 °F 71.0 °F 29.86 in NE 0.1 mph 1.0 mph 85 % 0.00 in
17:07 75.7 °F 70.9 °F 29.86 in Calm   1.2 mph 85 % 0.00 in
17:12 75.7 °F 70.5 °F 29.87 in NE 0.1 mph 1.2 mph 84 % 0.00 in
17:17 75.7 °F 70.9 °F 29.86 in Calm   1.2 mph 85 % 0.00 in
17:23 75.7 °F 70.5 °F 29.86 in Calm     84 % 0.00 in
17:28 75.7 °F 70.2 °F 29.86 in Calm   1.2 mph 83 % 0.00 in
17:33 75.7 °F 70.2 °F 29.86 in NE 1.8 mph 2.3 mph 83 % 0.00 in
17:38 75.6 °F 70.1 °F 29.86 in ENE 1.1 mph 3.5 mph 83 % 0.00 in
17:43 75.5 °F 70.0 °F 29.86 in Calm     83 % 0.00 in
17:48 75.5 °F 70.3 °F 29.86 in ENE 0.1 mph 1.2 mph 84 % 0.00 in
17:53 75.4 °F 70.6 °F 29.86 in ENE 0.1 mph 1.2 mph 85 % 0.00 in
17:58 75.3 °F 70.5 °F 29.86 in ENE 0.3 mph 1.2 mph 85 % 0.00 in
18:03 75.3 °F 70.5 °F 29.86 in ENE 0.1 mph 1.2 mph 85 % 0.00 in
18:08 75.2 °F 70.4 °F 29.86 in Calm     85 % 0.00 in
18:13 75.1 °F 70.6 °F 29.86 in Calm     86 % 0.00 in
18:18 75.0 °F 70.5 °F 29.86 in Calm   1.2 mph 86 % 0.00 in
18:23 74.9 °F 70.4 °F 29.86 in Calm   1.2 mph 86 % 0.00 in
18:29 74.8 °F 70.7 °F 29.86 in ENE 0.3 mph   87 % 0.00 in
18:34 74.6 °F 70.5 °F 29.86 in Calm     87 % 0.00 in
18:39 74.5 °F 70.7 °F 29.86 in Calm     88 % 0.00 in
18:44 74.3 °F 70.5 °F 29.86 in Calm     88 % 0.00 in
18:49 74.2 °F 70.4 °F 29.86 in Calm     88 % 0.00 in
18:54 74.0 °F 70.2 °F 29.86 in Calm     88 % 0.00 in
18:59 73.9 °F 70.1 °F 29.86 in Calm     88 % 0.00 in
19:04 73.8 °F 70.0 °F 29.86 in Calm     88 % 0.00 in
19:09 73.6 °F 69.8 °F 29.86 in Calm     88 % 0.00 in
19:14 73.5 °F 70.1 °F 29.86 in Calm     89 % 0.00 in
19:19 73.3 °F 69.9 °F 29.86 in Calm     89 % 0.00 in
19:24 73.2 °F 69.8 °F 29.86 in Calm     89 % 0.00 in
19:29 73.0 °F 69.6 °F 29.86 in Calm     89 % 0.00 in
19:34 72.8 °F 69.4 °F 29.87 in Calm     89 % 0.00 in
19:39 72.7 °F 69.3 °F 29.87 in Calm     89 % 0.00 in
19:44 72.5 °F 69.1 °F 29.87 in Calm     89 % 0.00 in
19:49 72.3 °F 68.9 °F 29.87 in Calm   1.2 mph 89 % 0.00 in
19:54 72.1 °F 68.7 °F 29.87 in SE 0.5 mph 3.5 mph 89 % 0.00 in
19:59 72.0 °F 68.6 °F 29.87 in Calm     89 % 0.00 in
20:04 71.9 °F 68.5 °F 29.87 in Calm     89 % 0.00 in
20:09 71.8 °F 68.4 °F 29.88 in Calm     89 % 0.00 in
20:15 71.7 °F 68.3 °F 29.87 in Calm     89 % 0.00 in
20:20 71.5 °F 68.1 °F 29.87 in SE 0.2 mph 2.3 mph 89 % 0.00 in
20:25 71.4 °F 68.0 °F 29.87 in SE 0.1 mph 1.2 mph 89 % 0.00 in
20:30 71.3 °F 67.9 °F 29.87 in Calm     89 % 0.00 in
20:35 71.2 °F 67.8 °F 29.87 in Calm     89 % 0.00 in
20:40 71.1 °F 67.7 °F 29.87 in Calm     89 % 0.00 in
20:45 71.0 °F 67.6 °F 29.87 in Calm     89 % 0.00 in
20:50 70.9 °F 67.2 °F 29.87 in Calm     88 % 0.00 in
20:55 70.8 °F 67.1 °F 29.87 in Calm     88 % 0.00 in
21:00 70.7 °F 67.0 °F 29.87 in Calm     88 % 0.00 in
21:05 70.5 °F 66.8 °F 29.87 in Calm     88 % 0.00 in
21:10 70.4 °F 66.7 °F 29.87 in Calm     88 % 0.00 in
21:15 70.3 °F 66.6 °F 29.87 in Calm     88 % 0.00 in
21:20 70.1 °F 66.7 °F 29.87 in SE 0.2 mph 2.3 mph 89 % 0.00 in
21:25 70.0 °F 66.6 °F 29.87 in Calm     89 % 0.00 in
21:30 69.8 °F 66.4 °F 29.87 in Calm     89 % 0.00 in
21:35 69.7 °F 66.3 °F 29.87 in Calm     89 % 0.00 in
21:40 69.6 °F 66.5 °F 29.87 in SE 1.1 mph 3.5 mph 90 % 0.00 in
21:45 69.5 °F 66.4 °F 29.87 in Calm   2.3 mph 90 % 0.00 in
21:51 69.5 °F 66.8 °F 29.88 in SE 0.5 mph 1.2 mph 91 % 0.00 in
21:55 69.5 °F 66.8 °F 29.87 in SE 0.9 mph 2.3 mph 91 % 0.00 in
22:01 69.5 °F 66.8 °F 29.87 in SE 0.1 mph 1.2 mph 91 % 0.00 in
22:06 69.5 °F 66.8 °F 29.87 in Calm     91 % 0.00 in
22:11 69.5 °F 66.8 °F 29.87 in Calm   1.0 mph 91 % 0.00 in
22:16 69.4 °F 66.7 °F 29.87 in Calm   2.0 mph 91 % 0.00 in
22:21 69.4 °F 66.7 °F 29.88 in Calm     91 % 0.00 in
22:26 69.4 °F 66.7 °F 29.88 in Calm     91 % 0.00 in
22:31 69.3 °F 66.6 °F 29.88 in Calm     91 % 0.00 in
22:36 69.2 °F 66.5 °F 29.88 in Calm     91 % 0.00 in
22:41 69.2 °F 66.5 °F 29.88 in Calm     91 % 0.00 in
22:46 69.1 °F 66.4 °F 29.88 in Calm     91 % 0.00 in
22:51 69.0 °F 66.3 °F 29.88 in Calm     91 % 0.00 in
22:56 68.9 °F 66.2 °F 29.87 in Calm     91 % 0.00 in
23:01 68.8 °F 66.1 °F 29.87 in Calm     91 % 0.00 in
23:06 68.7 °F 66.0 °F 29.87 in Calm     91 % 0.00 in
23:11 68.6 °F 65.9 °F 29.87 in Calm     91 % 0.00 in
23:16 68.5 °F 65.8 °F 29.87 in Calm     91 % 0.00 in
23:21 68.4 °F 65.7 °F 29.87 in Calm     91 % 0.00 in
23:26 68.3 °F 65.6 °F 29.87 in Calm     91 % 0.00 in
23:31 68.2 °F 65.5 °F 29.86 in Calm     91 % 0.00 in
23:37 68.1 °F 65.4 °F 29.87 in Calm     91 % 0.00 in
23:42 68.0 °F 65.3 °F 29.86 in Calm     91 % 0.00 in
23:47 67.9 °F 65.2 °F 29.86 in Calm     91 % 0.00 in
23:52 67.8 °F 65.1 °F 29.86 in Calm     91 % 0.00 in
23:57 67.7 °F 65.0 °F 29.85 in Calm     91 % 0.00 in
Crab Meadow Weather
Compliments of Weather Underground - 3 mb

Script developed by  Jim McMurry - jmcmurry@mwt.net Adapted for the template by  Wim van der Kuil - Leuven-Template.eu

Recycling: To produce each week's Sunday newspapers, 500,000 trees must be cut down.